Time;durP1;ratioP1;P1;durP2;ratioP2;P2;SDS_P1;SDS_P2;PMS_P1;PMS_P2;Temp;Humidity;BMP_temperature;BMP_pressure;BME280_temperature;BME280_humidity;BME280_pressure;Samples;Min_cycle;Max_cycle;Signal;HPM_P1;HPM_P2
2023/05/15 00:02:13;;;;;;;47.72;27.50;;;10.70;99.90;;;;;;5082057;28;20064;-58
2023/05/15 00:04:39;;;;;;;48.90;27.88;;;10.70;99.90;;;;;;5079723;28;20047;-56
2023/05/15 00:07:05;;;;;;;47.78;28.25;;;10.60;99.90;;;;;;5082127;28;20036;-56
2023/05/15 00:09:31;;;;;;;51.97;30.63;;;10.40;99.90;;;;;;5062362;28;20448;-58
2023/05/15 00:11:57;;;;;;;49.28;29.80;;;10.60;99.90;;;;;;5081413;28;20147;-58
2023/05/15 00:14:23;;;;;;;52.13;30.55;;;10.50;99.90;;;;;;5081427;28;20045;-58
2023/05/15 00:16:49;;;;;;;50.00;29.80;;;10.60;99.90;;;;;;5079998;28;20037;-57
2023/05/15 00:19:15;;;;;;;53.60;32.42;;;10.30;99.90;;;;;;5081807;28;20091;-58
2023/05/15 00:21:41;;;;;;;51.58;30.98;;;10.60;99.90;;;;;;5079613;28;20108;-57
2023/05/15 00:24:07;;;;;;;50.60;30.65;;;10.50;99.90;;;;;;5081928;28;20410;-58
2023/05/15 00:26:33;;;;;;;49.40;28.20;;;10.20;99.90;;;;;;5079817;28;20092;-57
2023/05/15 00:28:58;;;;;;;49.55;30.13;;;10.20;99.90;;;;;;5081424;28;20407;-57
2023/05/15 00:31:24;;;;;;;49.33;30.60;;;10.50;99.90;;;;;;5080292;28;20037;-57
2023/05/15 00:33:50;;;;;;;48.80;28.05;;;10.20;99.90;;;;;;5080018;28;20100;-57
2023/05/15 00:36:16;;;;;;;51.53;30.15;;;10.40;99.90;;;;;;5063466;28;20036;-58
2023/05/15 00:38:42;;;;;;;49.35;30.17;;;10.40;99.90;;;;;;5079297;28;20044;-58
2023/05/15 00:41:10;;;;;;;51.33;30.88;;;10.30;99.90;;;;;;5081692;28;20070;-58
2023/05/15 00:43:38;;;;;;;56.72;32.03;;;10.50;99.90;;;;;;5079259;28;20040;-57
2023/05/15 00:46:06;;;;;;;50.63;30.60;;;10.30;99.90;;;;;;5080913;28;20048;-58
2023/05/15 00:48:32;;;;;;;50.30;29.10;;;10.10;99.90;;;;;;5080466;28;20051;-58
2023/05/15 00:50:58;;;;;;;52.22;30.60;;;9.80;99.90;;;;;;5079496;28;20029;-58
2023/05/15 00:53:26;;;;;;;53.40;30.20;;;10.00;99.90;;;;;;5062991;28;20047;-57
2023/05/15 00:55:55;;;;;;;56.20;32.58;;;10.20;99.90;;;;;;5079005;28;20067;-57
2023/05/15 00:58:22;;;;;;;54.97;31.23;;;10.00;99.90;;;;;;5081034;28;20040;-57
2023/05/15 01:00:49;;;;;;;50.95;30.52;;;10.00;99.90;;;;;;5079035;28;20049;-58
2023/05/15 01:03:15;;;;;;;47.50;29.77;;;10.30;99.90;;;;;;5080724;28;20584;-58
2023/05/15 01:05:40;;;;;;;52.92;30.98;;;10.00;99.90;;;;;;5079759;28;20044;-57
2023/05/15 01:08:38;;;;;;;51.35;30.00;;;10.00;99.90;;;;;;5079410;28;20052;-58
2023/05/15 01:11:07;;;;;;;57.85;31.33;;;10.20;99.90;;;;;;5067488;28;20516;-58
2023/05/15 01:13:32;;;;;;;52.13;30.10;;;10.10;99.90;;;;;;5078915;28;20412;-57
2023/05/15 01:15:58;;;;;;;53.53;31.23;;;10.10;99.90;;;;;;5080688;28;20051;-58
2023/05/15 01:18:30;;;;;;;50.42;30.38;;;10.20;99.90;;;;;;5079440;28;20467;-57
2023/05/15 01:21:06;;;;;;;51.40;30.15;;;10.30;99.90;;;;;;5079275;28;20120;-58
2023/05/15 01:24:11;;;;;;;50.97;29.10;;;10.00;99.90;;;;;;5080339;28;20096;-58
2023/05/15 01:27:05;;;;;;;50.03;28.17;;;10.00;99.90;;;;;;5078800;28;20082;-57
2023/05/15 01:29:44;;;;;;;55.90;30.58;;;10.10;99.90;;;;;;5078800;28;20044;-58
2023/05/15 01:32:30;;;;;;;52.78;30.63;;;10.00;99.90;;;;;;5080589;28;20052;-57
2023/05/15 01:35:10;;;;;;;48.38;28.52;;;10.20;99.90;;;;;;5078241;28;20561;-58
2023/05/15 01:37:41;;;;;;;53.58;30.02;;;10.10;99.90;;;;;;5079958;28;20478;-57
2023/05/15 01:40:09;;;;;;;50.92;29.05;;;10.10;99.90;;;;;;5079565;28;20051;-57
2023/05/15 01:42:36;;;;;;;51.67;29.80;;;9.90;99.90;;;;;;5078502;28;20033;-57
2023/05/15 01:45:04;;;;;;;47.97;28.33;;;9.70;99.90;;;;;;5079889;28;20041;-57
2023/05/15 01:47:38;;;;;;;51.28;29.38;;;9.80;99.90;;;;;;5078003;28;20537;-58
2023/05/15 01:50:06;;;;;;;50.15;29.63;;;9.70;99.90;;;;;;5080338;28;20654;-58
2023/05/15 01:52:38;;;;;;;53.20;29.90;;;9.70;99.90;;;;;;5060240;28;20436;-57
2023/05/15 01:55:07;;;;;;;57.50;31.63;;;9.80;99.90;;;;;;5078887;28;20044;-57
2023/05/15 01:57:34;;;;;;;57.70;30.10;;;9.60;99.90;;;;;;5079867;28;20091;-57
2023/05/15 02:00:01;;;;;;;51.28;29.40;;;9.40;99.90;;;;;;5077756;28;20072;-58
2023/05/15 02:02:28;;;;;;;56.97;31.13;;;9.50;99.90;;;;;;5079480;28;20090;-58
2023/05/15 02:04:55;;;;;;;55.80;30.27;;;9.70;99.90;;;;;;5077733;28;20541;-57
2023/05/15 02:07:22;;;;;;;52.53;29.65;;;9.80;99.90;;;;;;5079565;28;20503;-58
2023/05/15 02:09:49;;;;;;;52.15;29.67;;;9.80;99.90;;;;;;5060661;28;20764;-58
2023/05/15 02:12:16;;;;;;;52.72;29.98;;;9.80;99.90;;;;;;5078348;28;20396;-57
2023/05/15 02:14:42;;;;;;;49.42;28.25;;;9.80;99.90;;;;;;5079415;28;20072;-55
2023/05/15 02:17:08;;;;;;;53.92;30.02;;;9.70;99.90;;;;;;5077702;28;20068;-57
2023/05/15 02:19:34;;;;;;;48.25;27.70;;;9.50;99.90;;;;;;5079576;28;20029;-57
2023/05/15 02:21:59;;;;;;;55.80;30.73;;;9.70;99.90;;;;;;5077598;28;20049;-58
2023/05/15 02:24:25;;;;;;;48.85;28.90;;;9.50;99.90;;;;;;5061548;28;20052;-57
2023/05/15 02:26:59;;;;;;;56.05;31.35;;;9.20;99.90;;;;;;5078059;28;20045;-58
2023/05/15 02:29:44;;;;;;;58.22;30.95;;;9.50;99.90;;;;;;5077906;28;20052;-57
2023/05/15 02:32:29;;;;;;;51.72;30.15;;;9.60;99.90;;;;;;5079120;28;20051;-57
2023/05/15 02:35:23;;;;;;;53.20;29.60;;;9.20;99.90;;;;;;5077257;28;20048;-56
2023/05/15 02:37:53;;;;;;;51.38;28.48;;;9.30;99.90;;;;;;5060384;28;20052;-58
2023/05/15 02:40:22;;;;;;;55.75;30.70;;;9.50;99.90;;;;;;5078638;28;20120;-57
2023/05/15 02:42:49;;;;;;;57.53;30.67;;;9.70;99.90;;;;;;5077256;28;20056;-58
2023/05/15 02:45:16;;;;;;;59.45;31.17;;;9.40;99.90;;;;;;5079259;28;20055;-58
2023/05/15 02:47:42;;;;;;;60.75;31.05;;;9.50;99.90;;;;;;5077127;28;20047;-57
2023/05/15 02:50:09;;;;;;;57.65;31.90;;;9.50;99.90;;;;;;5079078;28;20040;-57
2023/05/15 02:52:34;;;;;;;55.50;30.08;;;9.30;99.90;;;;;;5077724;28;20044;-57
2023/05/15 02:55:00;;;;;;;56.85;30.75;;;9.30;99.90;;;;;;5077784;28;20036;-58
2023/05/15 02:57:26;;;;;;;52.67;29.88;;;9.50;99.90;;;;;;5078464;28;20060;-57
2023/05/15 02:59:53;;;;;;;57.60;30.45;;;9.40;99.90;;;;;;5076871;28;20052;-57
2023/05/15 03:02:19;;;;;;;58.30;30.95;;;9.50;99.90;;;;;;5078748;28;20075;-58
2023/05/15 03:04:44;;;;;;;57.13;30.50;;;9.30;99.90;;;;;;5076556;28;20070;-58
2023/05/15 03:07:10;;;;;;;52.90;29.23;;;9.50;99.90;;;;;;5078791;28;20047;-57
2023/05/15 03:09:36;;;;;;;56.53;29.92;;;9.50;99.90;;;;;;5077173;28;20037;-58
2023/05/15 03:12:02;;;;;;;50.42;27.58;;;9.50;99.90;;;;;;5077946;28;20083;-58
2023/05/15 03:14:27;;;;;;;44.60;25.65;;;9.50;99.90;;;;;;5077155;28;20080;-58
2023/05/15 03:16:53;;;;;;;41.13;23.55;;;9.50;99.90;;;;;;5076948;28;20059;-57
2023/05/15 03:19:18;;;;;;;37.25;22.55;;;9.60;99.90;;;;;;5078772;28;20059;-57
2023/05/15 03:21:44;;;;;;;35.13;20.02;;;9.50;99.90;;;;;;5076768;28;20458;-57
2023/05/15 03:24:10;;;;;;;35.67;20.55;;;9.60;99.90;;;;;;5060406;28;20060;-57
2023/05/15 03:26:36;;;;;;;30.40;18.85;;;9.70;99.90;;;;;;5076973;28;20102;-57
2023/05/15 03:29:02;;;;;;;32.10;19.63;;;9.50;99.90;;;;;;5059854;28;20045;-57
2023/05/15 03:31:27;;;;;;;32.13;20.00;;;9.40;99.90;;;;;;5077963;28;20120;-57
2023/05/15 03:33:53;;;;;;;32.75;20.27;;;9.50;99.90;;;;;;5058861;28;20051;-58
2023/05/15 03:36:18;;;;;;;34.78;22.88;;;9.80;99.90;;;;;;5060466;28;20094;-57
2023/05/15 03:38:44;;;;;;;34.65;22.23;;;9.70;99.90;;;;;;5076052;28;20052;-57
2023/05/15 03:41:11;;;;;;;33.28;22.05;;;9.70;99.90;;;;;;5078457;28;20055;-57
2023/05/15 03:43:36;;;;;;;32.15;21.85;;;9.50;99.90;;;;;;5076282;28;20525;-57
2023/05/15 03:46:02;;;;;;;32.47;23.15;;;9.50;99.90;;;;;;5077884;28;20051;-57
2023/05/15 03:48:28;;;;;;;32.85;22.40;;;9.80;99.90;;;;;;5077647;28;20044;-58
2023/05/15 03:50:54;;;;;;;30.75;22.23;;;9.80;99.90;;;;;;5076863;28;20037;-57
2023/05/15 03:53:20;;;;;;;31.90;22.48;;;9.80;99.90;;;;;;5078120;28;20044;-58
2023/05/15 03:55:45;;;;;;;30.00;22.00;;;10.20;99.90;;;;;;5076341;28;20078;-57
2023/05/15 03:58:11;;;;;;;30.85;21.85;;;10.10;99.90;;;;;;5078560;28;20103;-57
2023/05/15 04:00:37;;;;;;;28.02;21.58;;;10.00;99.90;;;;;;5075963;28;20503;-57
2023/05/15 04:03:02;;;;;;;28.42;20.27;;;10.00;99.90;;;;;;5078344;28;20049;-58
2023/05/15 04:05:28;;;;;;;32.08;22.33;;;10.00;99.90;;;;;;5076944;28;20043;-57
2023/05/15 04:07:54;;;;;;;31.25;22.13;;;10.10;99.90;;;;;;5076745;28;20037;-58
2023/05/15 04:10:19;;;;;;;32.03;22.05;;;10.20;99.90;;;;;;5077890;28;20135;-57
2023/05/15 04:12:45;;;;;;;29.98;20.48;;;10.00;99.90;;;;;;5076037;28;20036;-58
2023/05/15 04:15:15;;;;;;;36.13;23.92;;;10.10;99.90;;;;;;5078344;28;20076;-57
2023/05/15 04:17:41;;;;;;;29.35;21.83;;;10.20;99.90;;;;;;5076152;28;20041;-58
2023/05/15 04:20:08;;;;;;;27.65;20.85;;;10.30;99.90;;;;;;5043505;28;20051;-57
2023/05/15 04:22:34;;;;;;;30.10;21.65;;;10.20;99.90;;;;;;5076565;28;20079;-58
2023/05/15 04:25:00;;;;;;;28.27;21.60;;;10.10;99.90;;;;;;5059685;28;20087;-58
2023/05/15 04:27:25;;;;;;;31.60;21.58;;;10.00;99.90;;;;;;5081403;28;20045;-58
2023/05/15 04:29:51;;;;;;;28.98;21.15;;;10.30;99.90;;;;;;5079514;28;20051;-57
2023/05/15 04:32:17;;;;;;;29.23;21.27;;;10.00;99.90;;;;;;5081516;28;20084;-57
2023/05/15 04:34:42;;;;;;;29.02;21.80;;;10.00;99.90;;;;;;5079415;28;20128;-57
2023/05/15 04:37:09;;;;;;;27.48;21.88;;;10.10;99.90;;;;;;5063417;28;20049;-58
2023/05/15 04:39:35;;;;;;;29.17;21.50;;;10.20;99.90;;;;;;5080061;28;20412;-57
2023/05/15 04:42:01;;;;;;;28.85;22.08;;;10.20;99.90;;;;;;5080507;28;20045;-57
2023/05/15 04:44:26;;;;;;;31.63;22.58;;;10.20;99.90;;;;;;5080772;28;20501;-58
2023/05/15 04:46:52;;;;;;;29.77;22.80;;;10.10;99.90;;;;;;5044731;28;20047;-57
2023/05/15 04:49:18;;;;;;;29.98;22.42;;;10.10;99.90;;;;;;5081247;28;20045;-57
2023/05/15 04:51:43;;;;;;;30.80;21.92;;;9.90;99.90;;;;;;5078764;28;20119;-57
2023/05/15 04:54:09;;;;;;;32.83;22.85;;;10.10;99.90;;;;;;5081461;28;20041;-57
2023/05/15 04:56:35;;;;;;;30.55;23.15;;;10.10;99.90;;;;;;5061369;28;20068;-57
2023/05/15 04:59:01;;;;;;;30.33;21.80;;;9.90;99.90;;;;;;5080775;28;20036;-57
2023/05/15 05:01:28;;;;;;;32.55;22.33;;;10.20;99.90;;;;;;5061964;28;20060;-57
2023/05/15 05:03:53;;;;;;;29.50;21.83;;;10.30;99.90;;;;;;5079364;28;20044;-57
2023/05/15 05:06:19;;;;;;;28.50;21.77;;;10.20;99.90;;;;;;5080481;28;20420;-57
2023/05/15 05:08:45;;;;;;;28.83;22.52;;;10.30;99.90;;;;;;5078701;28;20039;-57
2023/05/15 05:11:10;;;;;;;29.73;21.83;;;10.60;99.90;;;;;;5081138;28;20046;-58
2023/05/15 05:13:36;;;;;;;30.60;22.60;;;10.50;99.90;;;;;;5078928;28;20047;-58
2023/05/15 05:16:02;;;;;;;30.15;22.60;;;10.70;99.90;;;;;;5080569;28;20045;-58
2023/05/15 05:18:29;;;;;;;27.95;21.38;;;10.50;99.90;;;;;;5080165;28;20039;-57
2023/05/15 05:21:02;;;;;;;25.08;20.92;;;10.60;99.90;;;;;;5079008;28;20049;-58
2023/05/15 05:23:29;;;;;;;28.65;21.80;;;10.60;99.90;;;;;;5062299;28;20049;-56
2023/05/15 05:25:54;;;;;;;37.63;22.33;;;10.80;99.90;;;;;;5078481;28;20087;-58
2023/05/15 05:28:20;;;;;;;29.08;19.38;;;10.80;99.90;;;;;;5080724;28;20044;-57
2023/05/15 05:30:47;;;;;;;23.63;17.98;;;11.10;99.90;;;;;;5078271;28;20517;-57
2023/05/15 05:33:13;;;;;;;22.35;17.10;;;10.80;99.90;;;;;;5079842;28;20040;-62
2023/05/15 05:35:39;;;;;;;25.38;19.90;;;10.80;99.90;;;;;;5061140;28;20048;-58
2023/05/15 05:38:05;;;;;;;25.35;20.95;;;11.00;99.90;;;;;;5078164;28;20044;-58
2023/05/15 05:40:31;;;;;;;27.75;20.70;;;11.10;99.90;;;;;;5080183;28;20049;-57
2023/05/15 05:43:00;;;;;;;28.77;20.63;;;10.80;99.90;;;;;;5078179;28;20045;-58
2023/05/15 05:45:26;;;;;;;26.85;19.27;;;10.80;99.90;;;;;;5080369;28;20059;-57
2023/05/15 05:47:51;;;;;;;24.00;19.08;;;10.90;99.90;;;;;;5060440;28;20044;-58
2023/05/15 05:50:17;;;;;;;26.38;18.83;;;10.90;99.90;;;;;;5079634;28;20040;-58
2023/05/15 05:52:43;;;;;;;26.38;19.55;;;11.30;99.90;;;;;;5079444;28;20509;-57
2023/05/15 05:55:09;;;;;;;28.95;20.13;;;11.40;99.90;;;;;;5078673;28;20042;-58
2023/05/15 05:57:34;;;;;;;31.17;20.50;;;11.70;99.90;;;;;;5045156;28;20117;-58
2023/05/15 06:00:00;;;;;;;31.02;22.73;;;11.60;99.90;;;;;;5077633;28;20048;-58
2023/05/15 06:02:26;;;;;;;21.80;17.70;;;11.60;99.90;;;;;;5079830;28;20404;-57
2023/05/15 06:04:52;;;;;;;23.40;19.23;;;11.40;99.90;;;;;;5077687;28;20063;-57
2023/05/15 06:07:17;;;;;;;23.35;16.42;;;11.60;99.90;;;;;;5079662;28;20037;-57
2023/05/15 06:09:44;;;;;;;20.55;17.33;;;11.40;99.90;;;;;;5078730;28;20066;-57
2023/05/15 06:12:11;;;;;;;21.80;18.27;;;11.20;99.90;;;;;;5078461;28;20141;-58
2023/05/15 06:14:36;;;;;;;22.38;16.85;;;11.40;99.90;;;;;;5079304;28;20063;-56
2023/05/15 06:17:03;;;;;;;19.90;14.63;;;11.30;99.90;;;;;;5077379;28;20064;-57
2023/05/15 06:19:29;;;;;;;22.73;15.13;;;11.30;99.90;;;;;;5061514;28;20040;-58
2023/05/15 06:21:55;;;;;;;23.33;16.50;;;11.30;99.90;;;;;;5077178;28;20083;-57
2023/05/15 06:24:20;;;;;;;22.55;14.43;;;11.40;99.90;;;;;;5079118;28;20044;-57
2023/05/15 06:26:46;;;;;;;20.10;15.05;;;11.50;99.90;;;;;;5077913;28;20048;-58
2023/05/15 06:29:12;;;;;;;21.38;14.85;;;11.50;99.90;;;;;;5077982;28;20066;-58
2023/05/15 06:31:37;;;;;;;21.20;15.07;;;11.60;99.90;;;;;;5078943;28;20051;-57
2023/05/15 06:34:03;;;;;;;20.25;14.02;;;11.50;99.90;;;;;;5077224;28;20051;-58
2023/05/15 06:36:29;;;;;;;17.25;14.10;;;11.80;99.90;;;;;;5079403;28;20048;-58
2023/05/15 06:38:54;;;;;;;16.83;13.30;;;11.70;99.90;;;;;;5077105;28;20044;-57
2023/05/15 06:41:20;;;;;;;16.38;12.88;;;11.80;99.90;;;;;;5079219;28;20052;-58
2023/05/15 06:43:46;;;;;;;14.10;10.73;;;11.90;99.90;;;;;;5077645;28;20044;-58
2023/05/15 06:46:14;;;;;;;15.98;11.35;;;11.90;99.90;;;;;;5078129;28;20416;-57
2023/05/15 06:48:40;;;;;;;16.75;12.07;;;12.10;99.90;;;;;;5078358;28;20045;-57
2023/05/15 06:51:06;;;;;;;19.27;13.13;;;12.20;99.90;;;;;;5059279;28;20415;-59
2023/05/15 06:53:32;;;;;;;16.05;12.02;;;12.20;99.90;;;;;;5079002;28;20048;-57
2023/05/15 06:55:57;;;;;;;20.90;13.43;;;12.10;99.90;;;;;;5076628;28;20086;-57
2023/05/15 06:58:24;;;;;;;15.30;11.10;;;11.90;99.90;;;;;;5079259;28;20052;-57
2023/05/15 07:00:50;;;;;;;14.95;11.45;;;12.00;99.90;;;;;;5076934;28;20044;-58
2023/05/15 07:03:16;;;;;;;16.92;12.02;;;11.90;99.90;;;;;;5078174;28;20094;-58
2023/05/15 07:05:42;;;;;;;14.02;11.07;;;11.60;99.90;;;;;;5059934;28;20044;-57
2023/05/15 07:08:07;;;;;;;16.45;12.88;;;11.50;99.90;;;;;;5077036;28;20122;-58
2023/05/15 07:10:33;;;;;;;18.73;13.98;;;11.70;99.90;;;;;;5079127;28;20915;-57
2023/05/15 07:12:59;;;;;;;18.52;13.48;;;11.90;99.90;;;;;;5058714;28;20075;-57
2023/05/15 07:15:24;;;;;;;17.08;12.10;;;11.80;99.90;;;;;;5078904;28;20118;-58
2023/05/15 07:17:50;;;;;;;13.25;10.98;;;12.10;99.90;;;;;;5076722;28;20068;-57
2023/05/15 07:20:16;;;;;;;16.73;12.07;;;12.30;99.90;;;;;;5078521;28;20073;-58
2023/05/15 07:22:41;;;;;;;15.45;11.23;;;12.30;99.90;;;;;;5077983;28;20040;-58
2023/05/15 07:25:07;;;;;;;15.13;11.48;;;12.40;99.90;;;;;;5076808;28;20435;-57
2023/05/15 07:27:33;;;;;;;14.80;11.18;;;12.40;99.90;;;;;;5078262;28;20051;-58
2023/05/15 07:30:01;;;;;;;14.82;11.73;;;12.50;99.90;;;;;;5076084;28;20111;-58
2023/05/15 07:32:26;;;;;;;19.90;13.50;;;12.00;99.90;;;;;;5078743;28;20056;-57
2023/05/15 07:34:52;;;;;;;16.02;13.45;;;11.80;99.90;;;;;;5076488;28;20052;-58
2023/05/15 07:37:18;;;;;;;21.92;12.50;;;11.80;99.90;;;;;;5078315;28;20052;-58
2023/05/15 07:39:43;;;;;;;18.33;12.52;;;11.90;99.90;;;;;;5059662;28;20051;-58
2023/05/15 07:42:09;;;;;;;18.38;12.02;;;12.00;99.90;;;;;;5076920;28;20048;-58
2023/05/15 07:44:35;;;;;;;16.20;11.82;;;12.20;99.90;;;;;;5077961;28;20045;-58
2023/05/15 07:47:00;;;;;;;15.18;11.45;;;12.30;99.90;;;;;;5076222;28;20048;-58
2023/05/15 07:49:26;;;;;;;11.95;9.05;;;12.40;99.90;;;;;;5078529;28;20041;-60
2023/05/15 07:51:52;;;;;;;14.77;9.55;;;12.40;99.90;;;;;;5076153;28;20040;-57
2023/05/15 07:54:17;;;;;;;15.10;9.85;;;12.70;99.90;;;;;;5078200;28;20052;-58
2023/05/15 07:56:43;;;;;;;14.23;10.10;;;12.80;99.90;;;;;;5076998;28;20072;-59
2023/05/15 07:59:09;;;;;;;15.07;11.77;;;12.80;99.90;;;;;;5076770;28;20595;-58
2023/05/15 08:01:35;;;;;;;16.70;11.23;;;13.00;99.90;;;;;;5081560;28;20105;-58
2023/05/15 08:04:01;;;;;;;16.90;12.00;;;12.90;99.90;;;;;;5080218;28;20115;-58
2023/05/15 08:06:26;;;;;;;13.40;11.38;;;12.30;99.90;;;;;;5082125;28;20575;-57
2023/05/15 08:08:52;;;;;;;14.82;10.20;;;12.20;99.90;;;;;;5079910;28;20567;-58
2023/05/15 08:11:18;;;;;;;15.60;11.85;;;12.40;99.90;;;;;;5082215;28;20251;-57
2023/05/15 08:13:43;;;;;;;18.80;12.13;;;12.80;99.90;;;;;;5062238;28;20249;-58
2023/05/15 08:16:09;;;;;;;15.07;10.82;;;13.10;99.90;;;;;;5081294;28;20159;-58
2023/05/15 08:18:35;;;;;;;15.60;11.77;;;12.50;99.90;;;;;;5063524;28;20040;-58
2023/05/15 08:21:01;;;;;;;16.70;11.63;;;12.70;99.90;;;;;;5080112;28;20047;-57
2023/05/15 08:23:26;;;;;;;14.27;10.77;;;13.10;99.90;;;;;;5081472;28;20049;-58
2023/05/15 08:25:52;;;;;;;16.27;10.98;;;13.40;99.90;;;;;;5079215;28;20056;-57
2023/05/15 08:28:17;;;;;;;16.15;11.43;;;13.30;99.90;;;;;;5081607;28;20048;-58
2023/05/15 08:30:43;;;;;;;16.52;10.95;;;13.40;99.90;;;;;;5079649;28;20045;-58
2023/05/15 08:33:09;;;;;;;15.05;12.23;;;13.70;99.90;;;;;;5081135;28;20064;-58
2023/05/15 08:35:34;;;;;;;14.52;11.68;;;13.40;99.90;;;;;;5080848;28;20044;-57
2023/05/15 08:38:00;;;;;;;13.55;11.20;;;13.50;99.90;;;;;;5062292;28;20107;-58
2023/05/15 08:40:27;;;;;;;17.20;12.10;;;13.90;99.90;;;;;;5081358;28;20051;-57
2023/05/15 08:42:54;;;;;;;15.15;11.63;;;13.90;99.90;;;;;;5079252;28;20047;-58
2023/05/15 08:45:20;;;;;;;15.48;11.18;;;13.70;99.90;;;;;;5081446;28;20123;-57
2023/05/15 08:47:46;;;;;;;17.55;11.07;;;13.60;99.90;;;;;;5079375;28;20421;-57
2023/05/15 08:50:14;;;;;;;17.90;10.55;;;13.70;99.90;;;;;;5080791;28;20040;-58
2023/05/15 08:52:45;;;;;;;17.70;10.50;;;14.00;99.90;;;;;;5080529;28;20044;-57
2023/05/15 08:55:16;;;;;;;12.63;9.60;;;13.80;99.90;;;;;;5079399;28;20106;-58
2023/05/15 08:57:43;;;;;;;13.63;9.93;;;14.20;99.90;;;;;;5081208;28;20041;-58
2023/05/15 09:00:13;;;;;;;15.50;10.65;;;14.10;99.90;;;;;;5078870;28;20028;-58
2023/05/15 09:02:40;;;;;;;15.55;10.00;;;14.10;99.90;;;;;;5063173;28;20497;-58
2023/05/15 09:05:07;;;;;;;14.25;10.77;;;13.80;99.90;;;;;;5079189;28;20147;-57
2023/05/15 09:07:33;;;;;;;14.52;11.20;;;13.80;99.90;;;;;;5080292;28;20512;-58
2023/05/15 09:10:01;;;;;;;14.10;10.80;;;13.90;99.90;;;;;;5080170;28;20488;-57
2023/05/15 09:12:27;;;;;;;12.80;9.75;;;14.10;99.90;;;;;;5077841;28;20052;-57
2023/05/15 09:15:10;;;;;;;14.90;9.00;;;14.40;99.90;;;;;;5080937;28;20059;-57
2023/05/15 09:17:36;;;;;;;12.50;8.48;;;14.40;99.90;;;;;;5078970;28;20066;-57
2023/05/15 09:20:07;;;;;;;16.67;9.82;;;14.00;99.90;;;;;;5046322;28;20340;-57
2023/05/15 09:22:34;;;;;;;13.30;10.27;;;14.40;99.90;;;;;;5079477;28;20040;-57
2023/05/15 09:25:02;;;;;;;12.40;9.38;;;14.20;99.90;;;;;;5079209;28;20041;-57
2023/05/15 09:27:27;;;;;;;12.95;9.45;;;14.50;99.90;;;;;;5080448;28;20064;-57
2023/05/15 09:29:55;;;;;;;12.30;9.57;;;14.30;99.90;;;;;;5078069;28;20072;-57
2023/05/15 09:32:21;;;;;;;12.00;7.95;;;14.40;99.90;;;;;;5062699;28;20036;-57
2023/05/15 09:34:47;;;;;;;11.32;7.80;;;14.30;99.90;;;;;;5078689;28;20064;-59
2023/05/15 09:37:32;;;;;;;11.80;8.57;;;14.20;99.90;;;;;;5080290;28;20056;-57
2023/05/15 09:40:09;;;;;;;14.35;8.15;;;14.50;99.90;;;;;;5061982;28;20048;-58
2023/05/15 09:42:35;;;;;;;10.95;7.80;;;14.60;99.90;;;;;;5078362;28;20121;-58
2023/05/15 09:45:01;;;;;;;11.30;8.32;;;14.60;99.90;;;;;;5080309;28;20044;-57
2023/05/15 09:47:27;;;;;;;11.23;7.93;;;14.70;99.90;;;;;;5078127;28;20083;-57
2023/05/15 09:49:53;;;;;;;11.07;7.55;;;14.90;99.90;;;;;;5080324;28;20478;-57
2023/05/15 09:52:18;;;;;;;10.88;7.30;;;14.80;99.90;;;;;;5078646;28;20381;-60
2023/05/15 09:54:47;;;;;;;8.68;6.25;;;14.30;99.90;;;;;;5079044;28;20053;-58
2023/05/15 09:57:13;;;;;;;9.02;7.10;;;14.60;99.90;;;;;;5079662;28;20075;-58
2023/05/15 09:59:47;;;;;;;9.23;6.63;;;14.90;99.90;;;;;;5077841;28;20036;-58
2023/05/15 10:02:21;;;;;;;10.15;7.63;;;14.90;99.90;;;;;;5079994;28;20120;-58
2023/05/15 10:04:54;;;;;;;9.98;6.68;;;15.20;99.90;;;;;;5077951;28;20111;-58
2023/05/15 10:07:27;;;;;;;10.27;6.35;;;15.10;99.90;;;;;;5079567;28;20037;-58
2023/05/15 10:09:54;;;;;;;8.88;6.55;;;14.90;99.90;;;;;;5079199;28;20078;-57
2023/05/15 10:12:20;;;;;;;12.70;6.47;;;15.20;99.90;;;;;;5077855;28;20071;-57
2023/05/15 10:14:47;;;;;;;11.57;6.47;;;14.60;99.90;;;;;;5079203;28;20095;-58
2023/05/15 10:17:13;;;;;;;9.57;6.85;;;14.90;99.90;;;;;;5077408;28;20866;-58
2023/05/15 10:19:41;;;;;;;11.98;6.50;;;15.00;99.90;;;;;;5079617;28;20033;-58
2023/05/15 10:22:09;;;;;;;11.95;7.03;;;14.90;99.90;;;;;;5059809;28;20041;-57
2023/05/15 10:24:39;;;;;;;12.25;6.72;;;14.80;99.90;;;;;;5078527;28;20063;-57
2023/05/15 10:27:06;;;;;;;13.48;7.88;;;14.90;99.90;;;;;;5078429;28;20052;-58
2023/05/15 10:29:33;;;;;;;9.30;6.47;;;14.90;99.90;;;;;;5077407;28;20425;-58
2023/05/15 10:32:00;;;;;;;10.57;6.47;;;15.00;99.90;;;;;;5079321;28;20059;-58
2023/05/15 10:34:27;;;;;;;11.52;7.22;;;15.00;99.90;;;;;;5076919;28;20048;-58
2023/05/15 10:36:54;;;;;;;10.95;7.20;;;14.80;99.90;;;;;;5079230;28;20115;-58
2023/05/15 10:39:21;;;;;;;10.35;7.70;;;15.20;99.90;;;;;;5077500;28;20048;-58
2023/05/15 10:41:48;;;;;;;9.20;7.22;;;15.00;99.90;;;;;;5078110;28;20044;-57
2023/05/15 10:44:15;;;;;;;9.20;6.65;;;15.20;99.90;;;;;;5078395;28;20040;-58
2023/05/15 10:46:41;;;;;;;9.82;7.32;;;15.10;99.90;;;;;;5059020;28;20040;-58
2023/05/15 10:49:07;;;;;;;11.60;7.95;;;15.10;99.90;;;;;;5079072;28;20128;-58
2023/05/15 10:51:36;;;;;;;11.50;7.47;;;15.00;99.90;;;;;;5076752;28;20045;-57
2023/05/15 10:54:05;;;;;;;18.38;8.05;;;15.10;99.90;;;;;;5079092;28;20062;-57
2023/05/15 10:56:35;;;;;;;11.15;7.75;;;14.90;99.90;;;;;;5077396;28;20048;-57
2023/05/15 10:59:09;;;;;;;11.60;8.32;;;15.40;99.90;;;;;;5077566;28;20045;-58
2023/05/15 11:01:36;;;;;;;11.48;8.45;;;15.00;99.90;;;;;;5078278;28;20044;-57
2023/05/15 11:04:12;;;;;;;11.93;8.65;;;15.10;99.90;;;;;;5076165;28;20469;-57
2023/05/15 11:06:43;;;;;;;12.00;9.35;;;15.30;99.90;;;;;;5078438;28;20045;-58
2023/05/15 11:09:21;;;;;;;13.18;9.63;;;15.10;99.90;;;;;;5077032;28;20048;-57
2023/05/15 11:11:59;;;;;;;13.60;8.90;;;14.90;99.90;;;;;;5078173;28;20048;-58
2023/05/15 11:14:29;;;;;;;13.27;10.27;;;14.70;99.90;;;;;;5078279;28;20056;-58
2023/05/15 11:16:56;;;;;;;11.07;9.30;;;14.70;99.90;;;;;;5076496;28;20130;-58
2023/05/15 11:19:22;;;;;;;15.30;10.23;;;14.90;99.90;;;;;;5078691;28;20040;-58
2023/05/15 11:21:56;;;;;;;12.57;9.73;;;14.40;99.90;;;;;;5076484;28;20421;-57
2023/05/15 11:24:46;;;;;;;14.20;10.40;;;15.20;99.90;;;;;;5067294;28;20090;-57
2023/05/15 11:27:15;;;;;;;14.70;10.82;;;15.00;99.90;;;;;;5058051;28;20045;-58
2023/05/15 11:30:16;;;;;;;13.70;10.85;;;14.90;99.90;;;;;;5055950;28;20033;-58
2023/05/15 11:33:03;;;;;;;14.02;10.77;;;15.00;99.90;;;;;;5058631;28;20045;-58
2023/05/15 11:35:37;;;;;;;15.15;10.45;;;14.80;99.90;;;;;;5056646;28;20052;-57
2023/05/15 11:38:15;;;;;;;12.43;10.05;;;15.20;99.90;;;;;;5056243;28;20053;-58
2023/05/15 11:41:01;;;;;;;11.70;9.07;;;14.80;99.90;;;;;;5058514;28;20123;-57
2023/05/15 11:43:32;;;;;;;14.07;9.05;;;15.00;99.90;;;;;;5038564;28;20137;-57
2023/05/15 11:46:04;;;;;;;12.77;9.02;;;15.20;99.90;;;;;;5057881;28;20049;-58
2023/05/15 11:48:32;;;;;;;10.93;8.27;;;15.00;99.90;;;;;;5057569;28;20095;-57
2023/05/15 11:51:00;;;;;;;12.32;8.10;;;14.80;99.90;;;;;;5056584;28;20049;-57
2023/05/15 11:53:28;;;;;;;11.73;8.20;;;14.70;99.90;;;;;;5058345;28;20045;-58
2023/05/15 11:55:53;;;;;;;12.90;8.30;;;14.80;99.90;;;;;;5055933;28;20074;-58
2023/05/15 11:58:21;;;;;;;12.95;9.18;;;15.50;99.90;;;;;;5040290;28;20080;-57
2023/05/15 12:00:48;;;;;;;12.00;9.57;;;15.00;99.90;;;;;;5056383;28;20401;-58
2023/05/15 12:03:26;;;;;;;11.57;9.10;;;15.60;99.90;;;;;;5057399;28;20049;-58
2023/05/15 12:05:53;;;;;;;13.38;9.60;;;15.20;99.90;;;;;;5057609;28;20056;-57
2023/05/15 12:08:20;;;;;;;13.30;9.05;;;14.60;99.90;;;;;;5056070;28;20056;-57
2023/05/15 12:10:46;;;;;;;15.43;9.52;;;15.00;99.90;;;;;;5058206;28;20037;-58
2023/05/15 12:13:16;;;;;;;11.10;9.10;;;14.90;99.90;;;;;;5056034;28;20084;-57
2023/05/15 12:15:44;;;;;;;12.57;9.30;;;15.00;99.90;;;;;;5057858;28;20453;-58
2023/05/15 12:18:11;;;;;;;12.10;9.25;;;15.00;99.90;;;;;;5057041;28;20052;-57
2023/05/15 12:20:38;;;;;;;10.77;8.55;;;15.10;99.90;;;;;;5056549;28;20045;-58
2023/05/15 12:23:05;;;;;;;14.20;9.02;;;14.70;99.90;;;;;;5057522;28;20247;-57
2023/05/15 12:25:32;;;;;;;11.55;8.55;;;14.90;99.90;;;;;;5055596;28;20053;-57
2023/05/15 12:28:02;;;;;;;12.15;8.95;;;14.50;99.90;;;;;;5057984;28;20041;-58
2023/05/15 12:30:33;;;;;;;12.93;9.80;;;14.40;99.90;;;;;;5055385;28;20405;-58
2023/05/15 12:33:03;;;;;;;13.13;9.20;;;14.10;99.90;;;;;;5057341;28;20124;-57
2023/05/15 12:35:31;;;;;;;14.80;10.02;;;14.40;99.90;;;;;;5039094;28;20355;-57